Time;durP1;ratioP1;P1;durP2;ratioP2;P2;SDS_P1;SDS_P2;PMS_P1;PMS_P2;Temp;Humidity;BMP_temperature;BMP_pressure;BME280_temperature;BME280_humidity;BME280_pressure;Samples;Min_cycle;Max_cycle;Signal;HPM_P1;HPM_P2
2022/10/27 00:00:53;;;;;;;7.63;4.70;;;;;;;14.40;86.00;102062.91;5101219;27;20047;-73
2022/10/27 00:03:20;;;;;;;10.85;5.07;;;;;;;14.39;86.18;102061.16;5097327;28;20102;-73
2022/10/27 00:05:47;;;;;;;12.80;5.05;;;;;;;14.38;86.41;102069.16;5111203;27;20460;-73
2022/10/27 00:08:20;;;;;;;8.88;4.30;;;;;;;14.35;86.63;102067.44;5111196;27;20041;-74
2022/10/27 00:11:05;;;;;;;8.85;4.70;;;;;;;14.32;86.58;102059.59;5109727;28;20040;-74
2022/10/27 00:13:33;;;;;;;10.63;4.80;;;;;;;14.27;86.49;102057.06;5101346;27;20526;-71
2022/10/27 00:16:05;;;;;;;8.45;4.95;;;;;;;14.26;86.38;102070.34;5091287;28;20555;-74
2022/10/27 00:18:33;;;;;;;10.00;4.90;;;;;;;14.22;86.88;102069.56;5093468;28;20976;-73
2022/10/27 00:21:12;;;;;;;10.30;4.50;;;;;;;14.20;86.93;102068.72;5089845;28;20044;-73
2022/10/27 00:23:41;;;;;;;9.75;4.72;;;;;;;14.16;86.95;102075.03;5097824;27;20566;-73
2022/10/27 00:26:14;;;;;;;13.02;5.13;;;;;;;14.15;87.34;102067.97;5092648;28;20037;-73
2022/10/27 00:28:42;;;;;;;10.90;5.00;;;;;;;14.12;87.27;102076.00;5103580;28;20512;-73
2022/10/27 00:31:14;;;;;;;8.65;4.88;;;;;;;14.12;87.48;102068.94;5105384;27;20040;-73
2022/10/27 00:33:46;;;;;;;9.80;4.75;;;;;;;14.15;87.90;102075.94;5097036;28;20040;-73
2022/10/27 00:36:21;;;;;;;10.15;4.50;;;;;;;14.21;88.00;102080.22;5111098;28;20064;-73
2022/10/27 00:38:53;;;;;;;10.23;4.75;;;;;;;14.27;88.15;102080.03;5104462;28;20052;-73
2022/10/27 00:41:38;;;;;;;11.00;4.95;;;;;;;14.34;88.17;102086.94;5113730;27;20406;-74
2022/10/27 00:44:26;;;;;;;8.95;5.00;;;;;;;14.36;87.99;102079.78;5101604;27;20048;-73
2022/10/27 00:46:54;;;;;;;9.95;5.55;;;;;;;14.37;87.83;102088.63;5108486;28;20044;-73
2022/10/27 00:49:29;;;;;;;10.20;5.80;;;;;;;14.37;87.82;102088.63;5100788;28;20040;-74
2022/10/27 00:52:05;;;;;;;11.95;5.85;;;;;;;14.33;87.54;102089.63;5106400;27;20090;-73
2022/10/27 00:54:40;;;;;;;13.90;6.25;;;;;;;14.28;87.42;102098.59;5104015;28;20796;-73
2022/10/27 00:57:11;;;;;;;10.88;6.35;;;;;;;14.24;87.50;102090.75;5100473;27;20083;-73
2022/10/27 00:59:38;;;;;;;8.40;6.03;;;;;;;14.21;87.45;102096.97;5101756;28;20051;-71
2022/10/27 01:02:09;;;;;;;11.93;6.90;;;;;;;14.20;87.67;102094.38;5109443;27;20410;-73
2022/10/27 01:04:51;;;;;;;13.55;6.60;;;;;;;14.18;87.66;102093.53;5106242;28;20040;-73
2022/10/27 01:07:21;;;;;;;9.55;6.30;;;;;;;14.17;87.92;102097.09;5100555;28;20101;-72
2022/10/27 01:09:49;;;;;;;9.77;6.03;;;;;;;14.16;88.05;102087.41;5109231;28;20036;-73
2022/10/27 01:12:16;;;;;;;10.27;6.25;;;;;;;14.13;88.12;102091.91;5112625;27;20044;-74
2022/10/27 01:14:44;;;;;;;13.98;5.70;;;;;;;14.15;88.11;102094.50;5111998;27;20890;-75
2022/10/27 01:17:33;;;;;;;12.25;6.05;;;;;;;14.16;88.19;102096.25;5111746;28;20063;-74
2022/10/27 01:20:41;;;;;;;9.57;6.00;;;;;;;14.17;88.29;102094.44;5100238;27;20048;-74
2022/10/27 01:23:29;;;;;;;8.95;5.70;;;;;;;14.17;88.48;102097.09;5104503;28;20040;-74
2022/10/27 01:26:08;;;;;;;9.02;5.47;;;;;;;14.18;88.44;102096.19;5098578;28;20036;-72
2022/10/27 01:29:09;;;;;;;12.18;5.82;;;;;;;14.20;88.55;102095.22;5099221;27;20048;-72
2022/10/27 01:31:49;;;;;;;8.05;5.13;;;;;;;14.20;88.49;102095.22;5093421;28;20139;-73
2022/10/27 01:34:25;;;;;;;11.38;5.10;;;;;;;14.22;88.82;102106.69;5106431;28;20773;-73
2022/10/27 01:37:04;;;;;;;8.73;5.03;;;;;;;14.22;88.90;102098.72;5102770;27;20045;-73
2022/10/27 01:39:56;;;;;;;7.38;4.38;;;;;;;14.23;88.78;102096.97;5091845;28;20078;-73
2022/10/27 01:42:46;;;;;;;9.65;4.10;;;;;;;14.25;88.66;102100.41;5094837;28;20042;-74
2022/10/27 01:45:20;;;;;;;7.97;4.03;;;;;;;14.27;88.63;102103.91;5097563;28;20036;-73
2022/10/27 01:47:48;;;;;;;;;;;;;;;14.26;88.80;102103.06;5100740;27;20048;-73
2022/10/27 01:50:26;;;;;;;6.70;3.28;;;;;;;14.28;88.71;102098.59;5112517;27;19935;-73
2022/10/27 01:53:07;;;;;;;7.10;4.00;;;;;;;14.31;88.76;102094.09;5094189;28;20825;-74
2022/10/27 01:55:54;;;;;;;7.15;3.33;;;;;;;14.35;88.63;102098.41;5097065;27;20049;-74
2022/10/27 01:59:17;;;;;;;9.50;3.53;;;;;;;14.37;88.67;102100.09;5103499;27;20044;-73
2022/10/27 02:02:22;;;;;;;7.82;3.47;;;;;;;14.39;88.60;102097.44;5095104;28;20480;-74
2022/10/27 02:05:16;;;;;;;9.07;3.17;;;;;;;14.37;88.21;102093.94;5094467;27;20044;-73
2022/10/27 02:08:06;;;;;;;7.18;3.28;;;;;;;14.38;88.58;102090.38;5112026;27;20295;-73
2022/10/27 02:11:04;;;;;;;9.48;3.60;;;;;;;14.36;88.44;102093.06;5100794;27;20120;-73
2022/10/27 02:13:36;;;;;;;6.65;3.08;;;;;;;14.35;88.38;102098.41;5117402;27;20040;-73
2022/10/27 02:16:16;;;;;;;7.97;3.13;;;;;;;14.36;88.37;102103.66;5110067;28;20044;-73
2022/10/27 02:18:56;;;;;;;8.65;3.03;;;;;;;14.36;88.33;102094.84;5104268;27;20475;-72
2022/10/27 02:21:24;;;;;;;6.88;3.00;;;;;;;14.34;88.31;102096.66;5108640;28;20040;-73
2022/10/27 02:23:52;;;;;;;7.00;2.85;;;;;;;14.33;88.15;102097.56;5098295;28;20048;-72
2022/10/27 02:26:37;;;;;;;6.25;2.97;;;;;;;14.31;88.08;102100.28;5100710;28;20056;-73
2022/10/27 02:29:31;;;;;;;8.75;3.20;;;;;;;14.29;88.18;102100.31;5106291;28;20098;-71
2022/10/27 02:32:05;;;;;;;5.13;2.72;;;;;;;14.23;88.09;102092.50;5107902;28;20052;-73
2022/10/27 02:34:36;;;;;;;4.90;2.70;;;;;;;14.22;88.18;102081.97;5096224;28;20111;-72
2022/10/27 02:37:06;;;;;;;6.53;2.72;;;;;;;14.21;88.06;102088.16;5109233;27;20044;-73
2022/10/27 02:39:33;;;;;;;9.15;3.17;;;;;;;14.18;88.27;102080.28;5106147;28;20044;-72
2022/10/27 02:42:03;;;;;;;6.68;2.72;;;;;;;14.13;88.30;102078.63;5100273;27;20047;-73
2022/10/27 02:44:30;;;;;;;5.97;2.85;;;;;;;14.09;88.44;102076.09;5111556;27;20044;-72
2022/10/27 02:46:57;;;;;;;8.30;2.95;;;;;;;14.02;88.42;102080.69;5101597;28;20100;-72
2022/10/27 02:49:27;;;;;;;6.05;2.83;;;;;;;13.93;88.31;102083.56;5091878;28;20044;-73
2022/10/27 02:51:54;;;;;;;6.43;2.97;;;;;;;13.87;88.50;102081.03;5092992;28;20040;-72
2022/10/27 02:54:22;;;;;;;6.95;2.60;;;;;;;13.80;88.67;102080.31;5109784;27;20047;-72
2022/10/27 02:56:50;;;;;;;8.65;3.00;;;;;;;13.75;88.87;102080.44;5100928;28;20040;-73
2022/10/27 02:59:17;;;;;;;8.18;2.67;;;;;;;13.69;88.67;102077.94;5092416;28;20047;-74
2022/10/27 03:01:45;;;;;;;9.02;3.15;;;;;;;13.64;88.76;102079.81;5099737;28;20044;-74
2022/10/27 03:04:12;;;;;;;7.75;2.63;;;;;;;13.59;88.85;102071.97;5098104;28;20101;-74
2022/10/27 03:06:39;;;;;;;7.25;2.72;;;;;;;13.55;88.91;102072.97;5091531;28;20114;-74
2022/10/27 03:09:06;;;;;;;9.27;2.85;;;;;;;13.48;88.97;102066.94;5096867;28;20051;-74
2022/10/27 03:11:35;;;;;;;7.80;2.72;;;;;;;13.44;88.98;102077.63;5099561;28;20048;-73
2022/10/27 03:14:02;;;;;;;8.13;3.15;;;;;;;13.40;89.21;102082.13;5090948;28;20115;-73
2022/10/27 03:16:29;;;;;;;9.45;3.10;;;;;;;13.36;89.22;102075.13;5092259;28;20036;-73
2022/10/27 03:18:56;;;;;;;6.22;3.00;;;;;;;13.31;89.48;102077.88;5093407;28;20055;-73
2022/10/27 03:21:23;;;;;;;6.03;3.03;;;;;;;13.28;89.67;102075.28;5095468;28;20041;-73
2022/10/27 03:23:50;;;;;;;8.18;3.20;;;;;;;13.22;89.80;102069.28;5100695;27;20048;-73
2022/10/27 03:26:17;;;;;;;6.10;3.20;;;;;;;13.15;89.80;102068.53;5092525;27;20094;-73
2022/10/27 03:28:44;;;;;;;6.97;2.97;;;;;;;13.09;90.01;102073.94;5095511;28;20101;-73
2022/10/27 03:31:11;;;;;;;7.25;3.20;;;;;;;13.03;90.07;102070.53;5108067;27;20040;-73
2022/10/27 03:33:38;;;;;;;6.13;3.40;;;;;;;12.98;90.43;102060.94;5102109;27;20097;-73
2022/10/27 03:36:06;;;;;;;7.32;3.42;;;;;;;12.93;90.55;102053.09;5104584;28;20413;-73
2022/10/27 03:38:33;;;;;;;5.88;3.30;;;;;;;12.88;90.75;102063.78;5095457;27;20040;-73
2022/10/27 03:41:00;;;;;;;5.53;3.50;;;;;;;12.84;90.76;102063.88;5102948;28;20045;-73
2022/10/27 03:43:27;;;;;;;10.52;3.88;;;;;;;12.79;90.71;102053.38;5092858;28;20040;-73
2022/10/27 03:45:54;;;;;;;10.30;3.70;;;;;;;12.74;90.77;102060.53;5097542;28;20033;-73
2022/10/27 03:48:28;;;;;;;8.85;3.75;;;;;;;12.70;90.91;102057.06;5098913;28;20102;-73
2022/10/27 03:50:55;;;;;;;5.03;3.53;;;;;;;12.66;91.10;102060.72;5098893;28;20036;-74
2022/10/27 03:53:22;;;;;;;5.75;3.60;;;;;;;12.63;91.24;102068.69;5096054;27;20110;-74
2022/10/27 03:55:49;;;;;;;9.02;3.30;;;;;;;12.59;91.67;102059.06;5104507;28;20602;-72
2022/10/27 03:58:17;;;;;;;9.68;4.07;;;;;;;12.56;91.69;102067.06;5096219;27;20098;-73
2022/10/27 04:00:45;;;;;;;9.82;4.30;;;;;;;12.51;91.89;102064.53;5108146;27;20090;-73
2022/10/27 04:03:13;;;;;;;9.25;4.10;;;;;;;12.50;92.10;102067.16;5100892;27;20556;-73
2022/10/27 04:05:40;;;;;;;7.53;4.10;;;;;;;12.46;92.02;102060.22;5110520;28;20522;-73
2022/10/27 04:08:07;;;;;;;6.47;3.70;;;;;;;12.43;92.13;102059.38;5110827;27;20071;-73
2022/10/27 04:10:34;;;;;;;8.52;4.25;;;;;;;12.42;92.14;102064.66;5107169;27;20036;-73
2022/10/27 04:13:01;;;;;;;10.23;4.45;;;;;;;12.38;92.26;102063.00;5095558;27;20033;-73
2022/10/27 04:15:28;;;;;;;9.95;4.20;;;;;;;12.37;92.50;102064.75;5102319;28;20044;-74
2022/10/27 04:17:58;;;;;;;8.18;4.10;;;;;;;12.38;92.69;102060.34;5109556;27;20064;-73
2022/10/27 04:20:27;;;;;;;12.52;4.25;;;;;;;12.36;92.52;102063.00;5095256;27;20067;-73
2022/10/27 04:22:58;;;;;;;9.40;4.35;;;;;;;12.35;92.84;102063.03;5095281;28;20103;-73
2022/10/27 04:25:26;;;;;;;9.65;4.28;;;;;;;12.34;92.69;102067.47;5096345;28;20044;-73
2022/10/27 04:28:04;;;;;;;8.90;4.35;;;;;;;12.34;92.74;102061.28;5102156;27;20040;-74
2022/10/27 04:30:32;;;;;;;7.78;4.25;;;;;;;12.30;92.95;102063.13;5099375;27;20044;-73
2022/10/27 04:32:59;;;;;;;12.00;3.90;;;;;;;12.28;92.79;102062.28;5110848;27;20044;-75
2022/10/27 04:35:27;;;;;;;9.20;4.47;;;;;;;12.29;92.86;102063.16;5098305;28;20036;-73
2022/10/27 04:37:55;;;;;;;10.02;4.15;;;;;;;12.26;92.94;102064.06;5097444;28;20123;-72
2022/10/27 04:40:23;;;;;;;8.82;3.88;;;;;;;12.26;93.16;102072.00;5098286;28;20115;-72
2022/10/27 04:42:51;;;;;;;10.13;3.95;;;;;;;12.27;93.18;102065.81;5108313;27;20035;-73
2022/10/27 04:45:19;;;;;;;9.90;3.90;;;;;;;12.24;93.16;102057.97;5103722;27;20045;-75
2022/10/27 04:47:46;;;;;;;9.82;4.25;;;;;;;12.23;93.35;102066.78;5099961;28;20047;-74
2022/10/27 04:50:15;;;;;;;8.98;3.63;;;;;;;12.22;93.28;102063.25;5107938;28;20044;-74
2022/10/27 04:52:58;;;;;;;10.57;3.65;;;;;;;12.24;93.55;102068.53;5102904;27;20505;-76
2022/10/27 04:55:26;;;;;;;8.07;3.20;;;;;;;12.30;94.07;102071.06;5096621;28;20109;-73
2022/10/27 04:57:54;;;;;;;7.90;3.70;;;;;;;12.36;94.07;102064.78;5095737;28;20463;-74
2022/10/27 05:00:22;;;;;;;6.25;3.35;;;;;;;12.40;94.18;102070.00;5101049;27;20498;-73
2022/10/27 05:02:58;;;;;;;8.73;3.78;;;;;;;12.42;93.79;102073.50;5110467;27;20094;-73
2022/10/27 05:05:28;;;;;;;7.40;3.15;;;;;;;12.37;93.43;102064.75;5110771;28;20036;-72
2022/10/27 05:08:02;;;;;;;7.93;3.83;;;;;;;12.35;93.36;102074.50;5099976;27;20051;-71
2022/10/27 05:10:32;;;;;;;6.95;3.63;;;;;;;12.30;93.13;102073.69;5093698;28;20086;-74
2022/10/27 05:13:01;;;;;;;7.03;3.40;;;;;;;12.29;93.22;102073.75;5092987;28;20048;-75
2022/10/27 05:15:29;;;;;;;8.68;3.90;;;;;;;12.32;93.32;102076.31;5110590;27;20071;-75
2022/10/27 05:17:56;;;;;;;8.55;3.50;;;;;;;12.35;93.48;102076.25;5117455;27;20056;-75
2022/10/27 05:20:23;;;;;;;6.00;2.97;;;;;;;12.39;93.44;102072.69;5116985;27;20055;-75
2022/10/27 05:22:50;;;;;;;7.63;3.63;;;;;;;12.40;93.17;102077.94;5105257;27;20048;-72
2022/10/27 05:25:17;;;;;;;12.05;4.05;;;;;;;12.37;92.77;102077.13;5110431;27;20044;-71
2022/10/27 05:27:45;;;;;;;9.48;4.10;;;;;;;12.29;92.72;102081.66;5103808;27;20048;-72
2022/10/27 05:30:13;;;;;;;10.18;4.10;;;;;;;12.21;92.62;102087.94;5113629;27;20105;-71
2022/10/27 05:32:40;;;;;;;9.23;4.00;;;;;;;12.14;92.52;102077.53;5101420;27;20055;-72
2022/10/27 05:35:13;;;;;;;12.35;3.75;;;;;;;12.08;92.72;102078.50;5107099;28;20048;-71
2022/10/27 05:37:45;;;;;;;9.85;3.78;;;;;;;12.00;92.84;102075.97;5110769;27;20045;-71
2022/10/27 05:40:13;;;;;;;10.35;4.00;;;;;;;11.95;93.03;102069.88;5112852;27;20545;-71
2022/10/27 05:42:49;;;;;;;9.52;4.00;;;;;;;11.93;93.21;102075.16;5130497;27;20085;-71
2022/10/27 05:45:18;;;;;;;7.82;4.18;;;;;;;11.90;93.25;102079.63;5096764;27;20048;-71
2022/10/27 05:47:46;;;;;;;12.55;5.18;;;;;;;11.89;93.51;102080.53;5108516;27;20589;-71
2022/10/27 05:50:13;;;;;;;10.55;4.18;;;;;;;11.87;93.49;102083.22;5100264;27;20098;-71
2022/10/27 05:52:45;;;;;;;7.85;4.18;;;;;;;11.86;93.72;102073.53;5103503;27;20556;-71
2022/10/27 05:55:13;;;;;;;11.80;4.10;;;;;;;11.88;93.87;102073.50;5115208;27;20037;-71
2022/10/27 05:57:40;;;;;;;8.20;4.10;;;;;;;11.86;93.91;102065.59;5123159;27;20486;-71
2022/10/27 06:00:08;;;;;;;8.00;3.97;;;;;;;11.86;94.11;102065.59;5100268;28;20173;-71
2022/10/27 06:02:35;;;;;;;10.00;3.97;;;;;;;11.85;94.20;102069.13;5109641;27;20037;-71
2022/10/27 06:05:02;;;;;;;8.82;4.72;;;;;;;11.85;94.14;102076.22;5100569;27;20051;-72
2022/10/27 06:07:29;;;;;;;10.18;4.25;;;;;;;11.85;94.26;102074.44;5113521;27;20898;-72
2022/10/27 06:09:56;;;;;;;10.60;4.68;;;;;;;11.87;94.37;102071.75;5116941;27;20048;-72
2022/10/27 06:12:24;;;;;;;7.75;4.15;;;;;;;11.87;94.40;102070.00;5110964;28;20040;-72
2022/10/27 06:14:51;;;;;;;10.15;5.03;;;;;;;11.90;94.64;102077.00;5097573;27;20037;-72
2022/10/27 06:17:21;;;;;;;10.98;4.50;;;;;;;11.91;94.51;102071.66;5113936;27;20052;-72
2022/10/27 06:19:48;;;;;;;9.70;4.57;;;;;;;11.91;94.62;102071.66;5104429;27;20049;-72
2022/10/27 06:22:15;;;;;;;14.38;4.80;;;;;;;11.93;94.61;102069.88;5099201;27;20036;-71
2022/10/27 06:24:42;;;;;;;6.72;4.38;;;;;;;11.97;94.81;102075.97;5109613;27;20044;-72
2022/10/27 06:27:09;;;;;;;13.82;5.05;;;;;;;12.04;94.89;102068.88;5125464;27;20040;-71
2022/10/27 06:29:37;;;;;;;10.75;4.70;;;;;;;12.08;94.80;102070.56;5124306;27;20762;-71
2022/10/27 06:32:04;;;;;;;10.38;4.57;;;;;;;12.11;94.86;102076.66;5109685;27;20561;-72
2022/10/27 06:34:31;;;;;;;12.63;4.78;;;;;;;12.15;94.79;102068.69;5106641;27;20121;-71
2022/10/27 06:36:58;;;;;;;9.02;3.83;;;;;;;12.20;94.74;102073.00;5108938;27;20043;-72
2022/10/27 06:39:27;;;;;;;10.50;4.35;;;;;;;12.28;94.61;102067.56;5104282;27;20500;-72
2022/10/27 06:41:54;;;;;;;9.43;4.00;;;;;;;12.32;94.56;102060.44;5112831;27;20097;-72
2022/10/27 06:44:23;;;;;;;9.65;3.67;;;;;;;12.39;94.48;102056.81;5122145;27;20032;-71
2022/10/27 06:46:51;;;;;;;8.02;3.72;;;;;;;12.45;94.38;102053.19;5108327;27;20040;-71
2022/10/27 06:49:18;;;;;;;8.35;4.00;;;;;;;12.50;94.15;102051.31;5116206;27;20041;-71
2022/10/27 06:51:45;;;;;;;6.22;3.40;;;;;;;12.55;94.04;102046.81;5098812;27;20044;-72
2022/10/27 06:54:18;;;;;;;9.60;3.40;;;;;;;12.64;93.69;102048.38;5106403;27;20529;-71
2022/10/27 06:56:47;;;;;;;9.65;3.85;;;;;;;12.69;93.82;102049.19;5104119;27;20094;-72
2022/10/27 06:59:15;;;;;;;10.02;3.95;;;;;;;12.78;93.68;102046.34;5113276;27;20036;-72
2022/10/27 07:01:42;;;;;;;7.55;3.70;;;;;;;12.85;93.40;102052.41;5105305;27;20419;-72
2022/10/27 07:04:09;;;;;;;9.00;3.75;;;;;;;12.94;93.09;102040.72;5101498;27;20883;-72
2022/10/27 07:06:36;;;;;;;9.63;4.13;;;;;;;13.01;92.74;102040.56;5095019;27;20094;-72
2022/10/27 07:09:03;;;;;;;8.40;3.33;;;;;;;13.11;92.53;102046.56;5099014;27;20044;-71
2022/10/27 07:11:36;;;;;;;4.40;3.13;;;;;;;13.22;92.04;102046.31;5119930;27;20063;-71
2022/10/27 07:14:03;;;;;;;10.45;4.53;;;;;;;13.25;91.85;102045.34;5110809;27;20132;-71
2022/10/27 07:16:33;;;;;;;7.03;3.33;;;;;;;13.28;91.61;102046.16;5117120;27;20051;-70
2022/10/27 07:19:01;;;;;;;10.65;3.40;;;;;;;13.33;91.59;102046.03;5097141;27;20053;-70
2022/10/27 07:21:29;;;;;;;8.60;3.53;;;;;;;13.39;91.18;102042.38;5101706;27;20071;-73
2022/10/27 07:23:56;;;;;;;8.63;3.70;;;;;;;13.44;91.14;102037.91;5093511;27;20111;-73
2022/10/27 07:26:23;;;;;;;7.82;3.50;;;;;;;13.51;90.93;102044.78;5113028;27;20575;-72
2022/10/27 07:28:51;;;;;;;9.02;3.03;;;;;;;13.56;90.60;102042.03;5108165;27;20580;-71
2022/10/27 07:31:19;;;;;;;7.28;2.65;;;;;;;13.63;90.33;102038.34;5128816;27;21251;-71
2022/10/27 07:33:46;;;;;;;7.50;2.60;;;;;;;13.69;90.02;102035.53;5117891;27;20501;-71
2022/10/27 07:36:14;;;;;;;5.78;2.80;;;;;;;13.74;89.83;102041.59;5113671;27;20036;-71
2022/10/27 07:38:41;;;;;;;8.95;2.42;;;;;;;13.78;89.68;102040.63;5099821;27;20554;-71
2022/10/27 07:41:08;;;;;;;6.57;2.63;;;;;;;13.85;89.33;102035.16;5102423;27;20044;-72
2022/10/27 07:43:38;;;;;;;8.32;2.47;;;;;;;13.90;88.94;102038.56;5097664;27;20051;-72
2022/10/27 07:46:05;;;;;;;4.75;2.22;;;;;;;13.94;89.03;102040.22;5101862;27;20508;-71
2022/10/27 07:48:37;;;;;;;6.28;2.40;;;;;;;14.02;88.89;102043.56;5101588;27;20048;-71
2022/10/27 07:51:04;;;;;;;6.80;2.25;;;;;;;14.10;88.53;102041.59;5125657;27;20047;-71
2022/10/27 07:53:31;;;;;;;7.95;2.65;;;;;;;14.19;88.37;102045.78;5114514;27;20543;-71
2022/10/27 07:55:58;;;;;;;8.80;2.10;;;;;;;14.29;88.11;102047.25;5101325;27;20085;-71
2022/10/27 07:58:25;;;;;;;4.10;1.90;;;;;;;14.40;87.73;102049.63;5110469;27;20527;-70
2022/10/27 08:00:52;;;;;;;8.07;1.88;;;;;;;14.54;87.37;102049.25;5101041;27;20049;-71
2022/10/27 08:03:28;;;;;;;7.28;2.00;;;;;;;14.67;86.70;102049.81;5109162;27;20044;-71
2022/10/27 08:05:57;;;;;;;10.85;2.00;;;;;;;14.77;85.89;102034.50;5110005;27;20047;-71
2022/10/27 08:08:24;;;;;;;4.25;1.90;;;;;;;14.88;85.86;102037.72;5118230;27;20031;-71
2022/10/27 08:10:51;;;;;;;5.57;1.70;;;;;;;14.99;85.26;102026.75;5116468;27;20044;-71
2022/10/27 08:13:18;;;;;;;6.22;1.70;;;;;;;15.12;84.86;102037.88;5124989;27;20037;-71
2022/10/27 08:15:46;;;;;;;6.22;2.17;;;;;;;15.27;84.22;102033.03;5121549;27;20037;-71
2022/10/27 08:18:14;;;;;;;2.70;1.40;;;;;;;15.41;83.83;102028.16;5099798;28;20469;-70
2022/10/27 08:20:45;;;;;;;6.35;1.40;;;;;;;15.57;83.35;102036.47;5109786;27;20052;-71
2022/10/27 08:23:16;;;;;;;2.53;1.33;;;;;;;15.69;82.91;102033.41;5116031;27;20055;-71
2022/10/27 08:25:44;;;;;;;7.10;1.50;;;;;;;15.83;82.32;102032.09;5093153;27;20041;-71
2022/10/27 08:28:13;;;;;;;8.13;1.70;;;;;;;15.97;82.38;102029.88;5098862;27;20469;-70
2022/10/27 08:30:41;;;;;;;3.70;1.58;;;;;;;16.09;81.45;102030.38;5110444;27;20083;-70
2022/10/27 08:33:19;;;;;;;8.85;1.58;;;;;;;16.17;81.09;102031.00;5126935;27;20040;-70
2022/10/27 08:35:46;;;;;;;6.75;2.03;;;;;;;16.23;80.95;102041.41;5108003;27;20079;-71
2022/10/27 08:38:15;;;;;;;6.97;1.40;;;;;;;16.27;80.57;102037.72;5105173;27;20087;-70
2022/10/27 08:41:11;;;;;;;7.10;1.50;;;;;;;16.32;80.58;102034.91;5105361;27;20549;-70
2022/10/27 08:44:00;;;;;;;4.10;1.50;;;;;;;16.36;79.08;102033.84;5099340;27;20173;-70
2022/10/27 08:46:43;;;;;;;4.53;1.48;;;;;;;16.39;79.22;102039.06;5115717;27;20040;-70
2022/10/27 08:49:36;;;;;;;7.22;1.80;;;;;;;16.41;79.66;102041.66;5129432;27;20455;-71
2022/10/27 08:52:40;;;;;;;11.45;2.00;;;;;;;16.42;79.07;102048.72;5111563;27;20040;-71
2022/10/27 08:55:13;;;;;;;4.82;1.33;;;;;;;16.46;78.30;102045.06;5110950;27;20494;-71
2022/10/27 08:58:09;;;;;;;4.95;1.60;;;;;;;16.49;78.01;102041.41;5128382;27;20044;-71
2022/10/27 09:00:50;;;;;;;4.82;1.23;;;;;;;16.55;77.09;102023.41;5110285;27;20478;-71
2022/10/27 09:03:59;;;;;;;3.75;1.33;;;;;;;16.69;76.95;102006.03;5116055;27;20802;-71
2022/10/27 09:06:33;;;;;;;3.63;1.60;;;;;;;16.89;76.41;101986.66;5118800;27;20056;-71
2022/10/27 09:09:12;;;;;;;3.60;1.20;;;;;;;17.07;75.74;101996.63;5124833;27;20408;-71
2022/10/27 09:11:56;;;;;;;3.40;1.10;;;;;;;17.29;75.33;101994.91;5118240;27;20048;-71
2022/10/27 09:15:08;;;;;;;13.75;1.30;;;;;;;17.53;75.23;102001.03;5133200;27;20039;-72
2022/10/27 09:17:58;;;;;;;6.35;1.10;;;;;;;17.73;74.67;102012.66;5103128;28;20025;-71
2022/10/27 09:20:31;;;;;;;8.50;1.30;;;;;;;17.88;73.68;102004.00;5126073;27;20042;-71
2022/10/27 09:23:04;;;;;;;1.73;0.98;;;;;;;17.98;72.05;102004.53;5110046;27;20048;-70
2022/10/27 09:25:40;;;;;;;4.28;1.20;;;;;;;18.01;72.76;101999.03;5119078;27;20040;-71
2022/10/27 09:28:18;;;;;;;4.22;0.90;;;;;;;18.09;71.60;101978.25;5122837;27;20091;-71
2022/10/27 09:30:49;;;;;;;5.32;1.10;;;;;;;18.10;71.43;101981.75;5116496;27;20807;-73
2022/10/27 09:33:28;;;;;;;2.38;0.90;;;;;;;18.13;71.18;101982.50;5128315;27;20047;-74
2022/10/27 09:35:55;;;;;;;3.88;0.82;;;;;;;18.26;70.53;101979.28;5127234;27;20757;-73
2022/10/27 09:38:24;;;;;;;5.13;1.05;;;;;;;18.37;70.25;101973.44;5125610;27;20086;-74
2022/10/27 09:40:53;;;;;;;4.28;0.98;;;;;;;18.44;70.00;101967.78;5118567;27;20040;-72
2022/10/27 09:43:22;;;;;;;3.85;0.80;;;;;;;18.55;69.10;101974.41;5128872;27;20037;-73
2022/10/27 09:45:58;;;;;;;6.93;1.02;;;;;;;18.62;69.52;101973.19;5127657;27;20542;-73
2022/10/27 09:48:27;;;;;;;8.55;1.25;;;;;;;18.67;68.91;101959.66;5107898;27;20091;-72
2022/10/27 09:51:15;;;;;;;4.72;0.88;;;;;;;18.76;68.22;101952.06;5100797;27;20490;-73
2022/10/27 09:53:51;;;;;;;3.25;0.80;;;;;;;18.88;67.88;101958.63;5118918;27;20787;-73
2022/10/27 09:56:32;;;;;;;3.53;0.70;;;;;;;18.96;67.78;101960.09;5120119;27;20047;-73
2022/10/27 09:59:04;;;;;;;2.75;1.08;;;;;;;19.02;67.36;101955.34;5115051;27;20122;-72
2022/10/27 10:01:54;;;;;;;9.45;1.23;;;;;;;19.15;67.17;101952.94;5111252;28;20044;-73
2022/10/27 10:04:31;;;;;;;3.65;1.02;;;;;;;19.23;66.41;101956.09;5100050;27;20064;-73
2022/10/27 10:07:06;;;;;;;3.42;0.65;;;;;;;19.31;67.04;101954.81;5126041;27;20038;-72
2022/10/27 10:09:41;;;;;;;9.60;1.10;;;;;;;19.38;66.54;101948.25;5126321;27;20188;-73
2022/10/27 10:12:19;;;;;;;12.43;1.65;;;;;;;19.45;65.93;101936.31;5127115;27;20040;-73
2022/10/27 10:15:11;;;;;;;5.13;0.80;;;;;;;19.52;65.35;101942.22;5114655;27;20033;-73
2022/10/27 10:17:50;;;;;;;7.90;1.10;;;;;;;19.51;65.13;101935.97;5104406;27;20592;-72
2022/10/27 10:20:36;;;;;;;3.08;0.80;;;;;;;19.57;65.80;101939.28;5127153;27;20044;-72
2022/10/27 10:23:24;;;;;;;3.30;0.90;;;;;;;19.66;65.28;101942.34;5119053;27;20039;-73
2022/10/27 10:25:56;;;;;;;2.00;0.73;;;;;;;19.75;65.24;101938.34;5117294;27;20067;-74
2022/10/27 10:28:38;;;;;;;3.90;0.80;;;;;;;19.84;64.78;101940.53;5119824;27;20036;-73
2022/10/27 10:31:10;;;;;;;5.15;0.90;;;;;;;19.91;64.42;101943.78;5117801;27;20071;-73
2022/10/27 10:33:44;;;;;;;4.85;0.82;;;;;;;20.02;63.91;101945.91;5108202;27;20524;-72
2022/10/27 10:36:40;;;;;;;4.60;1.10;;;;;;;20.09;63.09;101930.38;5098360;27;20033;-73
2022/10/27 10:39:42;;;;;;;3.47;0.90;;;;;;;20.15;63.41;101916.66;5107767;27;20515;-73
2022/10/27 10:42:09;;;;;;;3.50;0.80;;;;;;;20.17;63.24;101917.44;5081051;28;20051;-72
2022/10/27 10:44:37;;;;;;;3.83;1.10;;;;;;;20.27;62.88;101912.47;5105692;27;20113;-71
2022/10/27 10:47:29;;;;;;;7.82;1.27;;;;;;;20.36;62.29;101903.94;5118913;27;20041;-71
2022/10/27 10:50:01;;;;;;;2.97;0.80;;;;;;;20.41;61.83;101904.53;5097684;27;20084;-71
2022/10/27 10:52:39;;;;;;;6.10;1.02;;;;;;;20.46;61.55;101896.22;5100731;27;20047;-71
2022/10/27 10:55:19;;;;;;;4.00;0.90;;;;;;;20.45;60.89;101898.06;5097910;28;20032;-71
2022/10/27 10:57:52;;;;;;;1.90;0.73;;;;;;;20.45;60.21;101898.06;5095813;28;20040;-72
2022/10/27 11:00:21;;;;;;;5.47;1.17;;;;;;;20.47;61.09;101898.84;5095873;28;20040;-72
2022/10/27 11:03:01;;;;;;;4.20;0.98;;;;;;;20.47;60.85;101901.53;5107886;27;20051;-71
2022/10/27 11:05:35;;;;;;;5.20;1.00;;;;;;;20.51;60.77;101904.00;5096281;28;20043;-71
2022/10/27 11:08:14;;;;;;;6.90;0.90;;;;;;;20.51;61.08;101904.91;5105201;27;20152;-72
2022/10/27 11:10:42;;;;;;;5.38;0.90;;;;;;;20.58;61.43;101906.28;5092034;27;20540;-72
2022/10/27 11:13:24;;;;;;;6.25;1.23;;;;;;;20.74;60.94;101892.06;5096725;27;20045;-72
2022/10/27 11:16:00;;;;;;;5.97;1.20;;;;;;;20.84;61.49;101890.59;5104315;27;20040;-72
2022/10/27 11:18:51;;;;;;;5.95;1.20;;;;;;;21.01;61.18;101880.69;5104856;27;20048;-73
2022/10/27 11:22:03;;;;;;;5.68;1.58;;;;;;;21.07;60.34;101883.88;5096357;27;20047;-72
2022/10/27 11:25:18;;;;;;;9.07;1.10;;;;;;;21.09;58.96;101884.66;5104210;27;20052;-71
2022/10/27 11:28:00;;;;;;;5.32;0.98;;;;;;;21.14;59.27;101871.00;5106648;28;20097;-71
2022/10/27 11:30:28;;;;;;;5.63;1.13;;;;;;;21.19;58.95;101868.88;5102081;27;20047;-73
2022/10/27 11:33:15;;;;;;;3.58;1.20;;;;;;;21.22;58.37;101867.84;5098419;27;20040;-72
2022/10/27 11:36:02;;;;;;;5.50;0.98;;;;;;;21.27;59.08;101860.41;5104433;27;20129;-72
2022/10/27 11:38:48;;;;;;;7.10;1.38;;;;;;;21.29;59.06;101862.97;5111957;27;20036;-72
2022/10/27 11:41:27;;;;;;;3.92;1.05;;;;;;;21.37;59.54;101868.72;5110833;27;20046;-73
2022/10/27 11:44:10;;;;;;;5.45;0.88;;;;;;;21.51;58.33;101866.09;5097117;27;20040;-73
2022/10/27 11:47:16;;;;;;;3.35;0.90;;;;;;;21.51;58.06;101860.72;5108035;27;20052;-73
2022/10/27 11:50:04;;;;;;;4.38;1.00;;;;;;;21.52;58.35;101867.81;5089635;27;20638;-72
2022/10/27 11:52:41;;;;;;;7.00;1.20;;;;;;;21.50;58.66;101859.00;5104910;27;20040;-73
2022/10/27 11:55:12;;;;;;;2.42;0.93;;;;;;;21.48;58.09;101862.75;5106847;27;20578;-73